MOL Modern — V7VS6 — position and weather

sailwx.info

Track history (hours):
 
Tides and Currents Weather Stations Pressure Air Temp Water Temp Dewpoint Dewpoint Depression Visibility Wind Speed Wind Dir Waves Ship Positions

MOL Modern

Last reported at 2015-Mar-18 09:13 UTC. Time now 2015-Mar-30 17:33 UTC.
Position N 32°50' W 079°54'.
Warning: this ship's position is 12 days out of date.

Length 302 m; draft 11.5 m.

Type: Ship (hazmat cat A). MMSI: 538004203.

Date/timePositionNaut miles runAvg speedWind from/ knotsBaromVisibWave heightAir tempDewpointWater temp
2015-Mar-18 09:13N 32°50' W 079°54'82 4.5
2015-Mar-17 15:06N 31°29' W 080°10'1120.4
2015-Mar-17 14:33N 31°19' W 080°15'2320.4
2015-Mar-17 13:25N 30°59' W 080°27'1920.5
2015-Mar-17 12:28N 30°43' W 080°40'1718.3
2015-Mar-17 11:33N 30°29' W 080°51'19 9.4
2015-Mar-17 09:33N 30°21' W 081°11'10 9.7
2015-Mar-17 08:33N 30°24' W 081°22'7 6.7
2015-Mar-17 07:33N 30°23' W 081°30'110 3.2
2015-Mar-15 21:17N 31°57' W 080°20'3 4.6
2015-Mar-15 20:33N 31°56' W 080°24'10 9.7
2015-Mar-15 19:33N 31°56' W 080°35'10 9.5
2015-Mar-15 18:33N 31°59' W 080°46'9 9.0
2015-Mar-15 17:33N 32°03' W 080°56'6 6.1
2015-Mar-15 16:33N 32°05' W 081°03'5 4.7
2015-Mar-15 15:33N 32°07' W 081°08'1 0.9
2015-Mar-15 14:31N 32°08' W 081°08'0 0.0
2015-Mar-15 13:31N 32°08' W 081°08'0 0.0
2015-Mar-15 12:31N 32°08' W 081°08'0 0.0
2015-Mar-15 11:31N 32°08' W 081°08'0 0.0
2015-Mar-15 10:31N 32°08' W 081°08'0 0.0
2015-Mar-15 09:31N 32°08' W 081°08'0 0.0
2015-Mar-15 08:31N 32°08' W 081°08'0 0.0
2015-Mar-15 07:31N 32°08' W 081°08'0 0.0
2015-Mar-15 06:31N 32°08' W 081°08'0 0.0
2015-Mar-15 05:31N 32°08' W 081°08'0 0.0
2015-Mar-15 04:31N 32°08' W 081°08'0 0.0
2015-Mar-15 03:31N 32°08' W 081°08'0 0.0
2015-Mar-15 02:31N 32°08' W 081°08'0 0.0
2015-Mar-15 01:31N 32°08' W 081°08'0 0.0
2015-Mar-15 00:31N 32°08' W 081°08'0 0.0
2015-Mar-14 23:31N 32°08' W 081°08'0 0.0
2015-Mar-14 22:31N 32°08' W 081°08'0 0.0
2015-Mar-14 21:31N 32°08' W 081°08'0 0.0
2015-Mar-14 20:31N 32°08' W 081°08'0 0.0
2015-Mar-14 19:31N 32°08' W 081°08'0 0.0
2015-Mar-14 18:31N 32°08' W 081°08'0 0.0
2015-Mar-14 17:31N 32°08' W 081°08'0 0.3
2015-Mar-14 16:34N 32°08' W 081°08'4 4.0
2015-Mar-14 15:33N 32°05' W 081°05'6 5.9
2015-Mar-14 14:33N 32°04' W 080°58'8 8.1
2015-Mar-14 13:33N 32°02' W 080°49'8 8.4
2015-Mar-14 12:34N 31°57' W 080°41'9 8.5
2015-Mar-14 11:34N 31°57' W 080°31'4 4.1
2015-Mar-14 10:34N 31°58' W 080°26'0 0.2
2015-Mar-14 09:24N 31°58' W 080°26'  
Track history (hours):
 
Tides and Currents Weather Stations Pressure Air Temp Water Temp Dewpoint Dewpoint Depression Visibility Wind Speed Wind Dir Waves Ship Positions

MOL Modern

Last reported at 2015-Mar-18 09:13 UTC. Time now 2015-Mar-30 17:33 UTC.
Position N 32°50' W 079°54'.
Warning: this ship's position is 12 days out of date.

Length 302 m; draft 11.5 m.

Type: Ship (hazmat cat A). MMSI: 538004203.

Date/timePositionNaut miles runAvg speedWind from/ knotsBaromVisibWave heightAir tempDewpointWater temp
2015-Mar-18 09:13N 32°50' W 079°54'82 4.5
2015-Mar-17 15:06N 31°29' W 080°10'1120.4
2015-Mar-17 14:33N 31°19' W 080°15'2320.4
2015-Mar-17 13:25N 30°59' W 080°27'1920.5
2015-Mar-17 12:28N 30°43' W 080°40'1718.3
2015-Mar-17 11:33N 30°29' W 080°51'19 9.4
2015-Mar-17 09:33N 30°21' W 081°11'10 9.7
2015-Mar-17 08:33N 30°24' W 081°22'7 6.7
2015-Mar-17 07:33N 30°23' W 081°30'110 3.2
2015-Mar-15 21:17N 31°57' W 080°20'3 4.6
2015-Mar-15 20:33N 31°56' W 080°24'10 9.7
2015-Mar-15 19:33N 31°56' W 080°35'10 9.5
2015-Mar-15 18:33N 31°59' W 080°46'9 9.0
2015-Mar-15 17:33N 32°03' W 080°56'6 6.1
2015-Mar-15 16:33N 32°05' W 081°03'5 4.7
2015-Mar-15 15:33N 32°07' W 081°08'1 0.9
2015-Mar-15 14:31N 32°08' W 081°08'0 0.0
2015-Mar-15 13:31N 32°08' W 081°08'0 0.0
2015-Mar-15 12:31N 32°08' W 081°08'0 0.0
2015-Mar-15 11:31N 32°08' W 081°08'0 0.0
2015-Mar-15 10:31N 32°08' W 081°08'0 0.0
2015-Mar-15 09:31N 32°08' W 081°08'0 0.0
2015-Mar-15 08:31N 32°08' W 081°08'0 0.0
2015-Mar-15 07:31N 32°08' W 081°08'0 0.0
2015-Mar-15 06:31N 32°08' W 081°08'0 0.0
2015-Mar-15 05:31N 32°08' W 081°08'0 0.0
2015-Mar-15 04:31N 32°08' W 081°08'0 0.0
2015-Mar-15 03:31N 32°08' W 081°08'0 0.0
2015-Mar-15 02:31N 32°08' W 081°08'0 0.0
2015-Mar-15 01:31N 32°08' W 081°08'0 0.0
2015-Mar-15 00:31N 32°08' W 081°08'0 0.0
2015-Mar-14 23:31N 32°08' W 081°08'0 0.0
2015-Mar-14 22:31N 32°08' W 081°08'0 0.0
2015-Mar-14 21:31N 32°08' W 081°08'0 0.0
2015-Mar-14 20:31N 32°08' W 081°08'0 0.0
2015-Mar-14 19:31N 32°08' W 081°08'0 0.0
2015-Mar-14 18:31N 32°08' W 081°08'0 0.0
2015-Mar-14 17:31N 32°08' W 081°08'0 0.3
2015-Mar-14 16:34N 32°08' W 081°08'4 4.0
2015-Mar-14 15:33N 32°05' W 081°05'6 5.9
2015-Mar-14 14:33N 32°04' W 080°58'8 8.1
2015-Mar-14 13:33N 32°02' W 080°49'8 8.4
2015-Mar-14 12:34N 31°57' W 080°41'9 8.5
2015-Mar-14 11:34N 31°57' W 080°31'4 4.1
2015-Mar-14 10:34N 31°58' W 080°26'0 0.2
2015-Mar-14 09:24N 31°58' W 080°26'  

Dump ship's entire track history